Port Sheldon, MI

11:43 PM EDT on August 29, 2015 (GMT -0400)
US31 & Croswell st | | Change Station
CLOSE
Current Station
Personal Weather Station
Location: West Olive, MI
Elevation: 642 ft
Nearby Weather Stations

Elev 642 ft 42.92 °N, 86.14 °W | Updated 23 minutes ago

Overcast
Overcast
65.2 °F
Feels Like 65.2 °F
N
0.0
Wind Variable Wind from ESE
Gusts 0.0 mph

Today
High -- | Low -- °F
--% Chance of Precip.
Yesterday
High -- | Low -- °F
Precip. -- in
7:05 AM 8:24 PM
Full, 100% visible
Pressure 30.05 in
Visibility 4.0 miles
Clouds Scattered Clouds 2200 ft
Mostly Cloudy 2900 ft
Overcast 3600 ft
Dew Point 65 °F
Humidity 98%
Rainfall 0.29 in
Snow Depth Not available.
UV 0 out of 12
Pollen 7.50 out of 12
Air Quality Not available.
Flu Activity Not available.
METAR KBIV 300253Z AUTO 08004KT 4SM BR SCT022 BKN029 OVC036 20/18 A3005 RMK AO2 RAB05E26 SLP174 P0000 60000 T02000183 51005
Pressure 30.05 in
Visibility 4.0 miles
Clouds Scattered Clouds 2200 ft
Mostly Cloudy 2900 ft
Overcast 3600 ft
Dew Point 65 °F
Humidity 98%
Rainfall 0.29 in
Snow Depth Not available.
UV 0 out of 12
Pollen 7.50 out of 12
Air Quality Not available.
Flu Activity Not available.
METAR KBIV 300253Z AUTO 08004KT 4SM BR SCT022 BKN029 OVC036 20/18 A3005 RMK AO2 RAB05E26 SLP174 P0000 60000 T02000183 51005

10-Day Weather Forecast

×

Almanac

Astronomy

Aug. 29, 2015 Rise Set
Actual Time
Civil Twilight
Nautical Twilight
Astronomical Twilight
Moon
Length of Visible Light
Length of Day
Tomorrow will be .
, % of the Moon is Illuminated

Today's Extremes

State Highs State Lows

Community

WunderPhotos

Upload Photos

1,850,870 photos uploaded!

WunderBlogs® & News

Nearby

Air Quality

  Air Quality AQ Index Pollutant
Not available.

Snow Depth

Station Depth Elevation

Earthquake Activity

City Distance Mag. Time & Date
Minimum magnitude displayed is 2.5.

Coastal Water Temperatures

Place Temperature

Stations

Nearby Weather Stations

Station Location Temp. Windchill Dew Point Humidity Wind Precip. Elev Updated Type